17 a 22/1 - Cálido a caluroso N, C, N patagónico [aire tropical y tormentas severas]

Avatar de Usuario
Diecha
Mensajes: 11001
Registrado: Jue Ago 25, 2011 9:31 pm
Ubicación: Lomas de Zamora

Re: 17 a 23/1 - Cálido a caluroso N, C, N patagónico [aire tropical y tormentas severas]

Mensaje por Diecha » Mar Ene 21, 2020 9:51 am

Buenas.

Imagen

Imagen
Spoiler
Mostrar
Imagen
Imagen
Imagen
Imagen
Imagen
Imagen
Imagen
Imagen
Imagen
Imagen
Imagen
Imagen
Imagen
Imagen
Imagen
Imagen
Imagen
Imagen
Última edición por Diecha el Mar Ene 21, 2020 12:19 pm, editado 1 vez en total.

Avatar de Usuario
MOTORHOMEMASTER
Mensajes: 4827
Registrado: Lun May 16, 2011 2:20 pm
Ubicación: Castelar o Hurlingham, Prov. Bs. As.

Re: 17 a 23/1 - Cálido a caluroso N, C, N patagónico [aire tropical y tormentas severas]

Mensaje por MOTORHOMEMASTER » Mar Ene 21, 2020 10:53 am

LLueve muy tranqui en Castelar

Avatar de Usuario
Diecha
Mensajes: 11001
Registrado: Jue Ago 25, 2011 9:31 pm
Ubicación: Lomas de Zamora

Re: 17 a 23/1 - Cálido a caluroso N, C, N patagónico [aire tropical y tormentas severas]

Mensaje por Diecha » Mar Ene 21, 2020 10:58 am

- Mar del Plata 10:39 hs: SAZM 211339Z 14011KT 2200 BR OVC003 20/19 Q1014

Imagen

Avatar de Usuario
Ale de Castelar
Mensajes: 25120
Registrado: Sab Mar 03, 2012 12:25 pm
Ubicación: Caballito

Re: 17 a 23/1 - Cálido a caluroso N, C, N patagónico [aire tropical y tormentas severas]

Mensaje por Ale de Castelar » Mar Ene 21, 2020 11:48 am

Llueve debilmente en Microcentro de nuevo

Avatar de Usuario
Marg Tor
Mensajes: 1596
Registrado: Jue Sep 20, 2018 8:54 pm
Ubicación: Rosario

Re: 17 a 23/1 - Cálido a caluroso N, C, N patagónico [aire tropical y tormentas severas]

Mensaje por Marg Tor » Mar Ene 21, 2020 12:20 pm

0,76 mm anoche :lol:
27º0 con 76 % ahora.
Nena, vi un rayo... vuelvo en unas horas...

You Tube
EMA Villa Gdor. Gálvez
EMA Villa Gdor. Gálvez Cooperativa

Avatar de Usuario
Carlitos12
Mensajes: 2205
Registrado: Jue Jul 16, 2015 10:39 pm
Ubicación: Ciudad de Corrientes
Contactar:

Re: 17 a 23/1 - Cálido a caluroso N, C, N patagónico [aire tropical y tormentas severas]

Mensaje por Carlitos12 » Mar Ene 21, 2020 12:27 pm

Lo que se comió el Chaco
Imagen

Avatar de Usuario
Diecha
Mensajes: 11001
Registrado: Jue Ago 25, 2011 9:31 pm
Ubicación: Lomas de Zamora

Re: 17 a 23/1 - Cálido a caluroso N, C, N patagónico [aire tropical y tormentas severas]

Mensaje por Diecha » Mar Ene 21, 2020 12:32 pm

Imagen

Imagen
Spoiler
Mostrar
Imagen
Imagen
Imagen
Imagen
Imagen
Imagen
Imagen
Imagen
Imagen
Imagen
Imagen
Imagen
Imagen
Imagen
Última edición por Diecha el Mar Ene 21, 2020 8:12 pm, editado 1 vez en total.

Avatar de Usuario
Ernest
Mensajes: 11296
Registrado: Vie Jul 17, 2009 10:54 pm
Ubicación: Balvanera, CABA

Re: 17 a 23/1 - Cálido a caluroso N, C, N patagónico [aire tropical y tormentas severas]

Mensaje por Ernest » Mar Ene 21, 2020 1:02 pm

Did you want to talk about the weather, or were you just making chitchat?

Twitter: @ErnestoMeteo

Avatar de Usuario
Ezequiel1995
Mensajes: 1069
Registrado: Mar Nov 12, 2019 4:50 pm
Ubicación: Merlo, Buenos Aires
Contactar:

Re: 17 a 23/1 - Cálido a caluroso N, C, N patagónico [aire tropical y tormentas severas]

Mensaje por Ezequiel1995 » Mar Ene 21, 2020 1:05 pm

26° la temperatura por acá.
Precipitación desde las 0 hs: 0.3 mm :cry:

Avatar de Usuario
Diecha
Mensajes: 11001
Registrado: Jue Ago 25, 2011 9:31 pm
Ubicación: Lomas de Zamora

Re: 17 a 23/1 - Cálido a caluroso N, C, N patagónico [aire tropical y tormentas severas]

Mensaje por Diecha » Mar Ene 21, 2020 1:29 pm

- San Fernando 13 hs: SADF 211600Z 18003KT 9000 -RA SCT035 OVC100 25/22 Q1010
- Aeroparque 13 hs: SABE 211600Z 16007KT 110V200 9999 FEW038 OVC100 26/21 Q1010
- Ezeiza 13 hs: SAEZ 211600Z 13004KT 9000 -RA FEW020 OVC100 26/22 Q1010

Imagen
Imagen
Imagen

Responder